Time;durP1;ratioP1;P1;durP2;ratioP2;P2;SDS_P1;SDS_P2;PMS_P1;PMS_P2;Temp;Humidity;BMP_temperature;BMP_pressure;BME280_temperature;BME280_humidity;BME280_pressure;Samples;Min_cycle;Max_cycle;Signal;HPM_P1;HPM_P2
2022/07/10 00:01:48;;;;;;;4.37;0.80;;;14.50;99.90;;;;;;4958539;29;20256;-79
2022/07/10 00:04:14;;;;;;;5.27;0.60;;;14.50;99.90;;;;;;4958348;29;20216;-82
2022/07/10 00:06:41;;;;;;;7.50;0.40;;;14.60;99.90;;;;;;4958459;29;20504;-81
2022/07/10 00:09:07;;;;;;;4.43;0.50;;;14.60;99.90;;;;;;4958431;29;20179;-83
2022/07/10 00:11:32;;;;;;;3.17;0.27;;;14.60;99.90;;;;;;4958183;29;20547;-82
2022/07/10 00:13:58;;;;;;;4.67;0.63;;;14.60;99.90;;;;;;4957973;29;20189;-83
2022/07/10 00:16:24;;;;;;;7.70;0.80;;;14.60;99.90;;;;;;4958226;29;20172;-83
2022/07/10 00:18:50;;;;;;;4.87;0.33;;;14.60;99.90;;;;;;4958207;29;20177;-85
2022/07/10 00:21:16;;;;;;;5.47;1.33;;;14.60;99.90;;;;;;4958212;29;20579;-84
2022/07/10 00:23:42;;;;;;;5.77;0.60;;;14.70;99.90;;;;;;4957979;29;20291;-82
2022/07/10 00:26:08;;;;;;;6.00;0.30;;;14.60;99.90;;;;;;4958058;29;20181;-84
2022/07/10 00:28:34;;;;;;;2.30;0.40;;;14.60;99.90;;;;;;4957732;29;20401;-83
2022/07/10 00:31:00;;;;;;;4.27;0.60;;;14.60;99.90;;;;;;4958011;29;20424;-81
2022/07/10 00:33:25;;;;;;;8.37;0.60;;;14.50;99.90;;;;;;4958012;29;20184;-84
2022/07/10 00:35:51;;;;;;;6.30;0.97;;;14.50;99.90;;;;;;4957925;29;20180;-79
2022/07/10 00:38:16;;;;;;;2.73;0.20;;;14.60;99.90;;;;;;4956609;29;20531;-81
2022/07/10 00:40:42;;;;;;;2.20;0.20;;;14.40;99.90;;;;;;4957854;29;20181;-80
2022/07/10 00:43:11;;;;;;;2.30;0.50;;;14.40;99.90;;;;;;4957401;29;20664;-84
2022/07/10 00:45:37;;;;;;;2.47;0.53;;;14.40;99.90;;;;;;4957745;29;20797;-82
2022/07/10 00:48:02;;;;;;;6.00;0.70;;;14.30;99.90;;;;;;4957672;29;20492;-81
2022/07/10 00:50:29;;;;;;;4.57;0.50;;;14.20;99.90;;;;;;4957672;29;20181;-79
2022/07/10 00:52:55;;;;;;;6.60;0.60;;;14.20;99.90;;;;;;4957628;29;20169;-83
2022/07/10 00:55:21;;;;;;;4.73;0.30;;;14.20;99.90;;;;;;4955788;28;21013;-82
2022/07/10 00:57:48;;;;;;;6.97;0.80;;;14.10;99.90;;;;;;4957157;29;20420;-82
2022/07/10 01:00:14;;;;;;;3.93;0.23;;;14.00;99.90;;;;;;4957479;29;20412;-83
2022/07/10 01:02:43;;;;;;;4.10;0.33;;;14.00;99.90;;;;;;4957445;29;20416;-82
2022/07/10 01:05:09;;;;;;;1.93;0.97;;;13.90;99.90;;;;;;4957262;29;20519;-82
2022/07/10 01:07:34;;;;;;;4.77;0.50;;;13.90;99.90;;;;;;4957287;29;20412;-80
2022/07/10 01:10:01;;;;;;;3.30;0.30;;;13.70;99.90;;;;;;4957129;29;20479;-82
2022/07/10 01:12:27;;;;;;;4.53;0.50;;;13.70;99.90;;;;;;4956913;29;20183;-83
2022/07/10 01:14:54;;;;;;;3.50;0.30;;;13.60;99.90;;;;;;4957216;29;20429;-81
2022/07/10 01:17:19;;;;;;;4.30;0.80;;;13.60;99.90;;;;;;4957133;29;20184;-79
2022/07/10 01:19:45;;;;;;;2.80;0.20;;;13.70;99.90;;;;;;4955815;29;20428;-79
2022/07/10 01:22:11;;;;;;;2.40;0.50;;;13.80;99.90;;;;;;4955813;29;20177;-80
2022/07/10 01:24:37;;;;;;;2.07;0.30;;;13.80;99.90;;;;;;4956877;29;20220;-79
2022/07/10 01:27:03;;;;;;;1.33;0.20;;;13.80;99.90;;;;;;4956936;29;20184;-81
2022/07/10 01:29:29;;;;;;;4.93;0.50;;;13.70;99.90;;;;;;4956618;29;20429;-84
2022/07/10 01:31:55;;;;;;;1.43;0.30;;;13.80;99.90;;;;;;4955671;29;20180;-79
2022/07/10 01:34:20;;;;;;;2.87;0.40;;;13.80;99.90;;;;;;4956810;29;20439;-83
2022/07/10 01:36:47;;;;;;;2.43;0.23;;;13.80;99.90;;;;;;4956710;29;20176;-83
2022/07/10 01:39:12;;;;;;;2.63;0.30;;;13.80;99.90;;;;;;4956797;29;20187;-82
2022/07/10 01:41:38;;;;;;;1.77;0.67;;;13.60;99.90;;;;;;4956738;29;21007;-83
2022/07/10 01:44:03;;;;;;;4.20;0.57;;;13.50;99.90;;;;;;4956262;29;20210;-81
2022/07/10 01:46:29;;;;;;;1.20;0.20;;;13.40;99.90;;;;;;4956647;29;20177;-84
2022/07/10 01:48:55;;;;;;;3.23;0.50;;;13.40;99.90;;;;;;4955323;29;20181;-83
2022/07/10 01:51:21;;;;;;;4.40;0.30;;;13.30;99.90;;;;;;4956459;29;20179;-84
2022/07/10 01:53:46;;;;;;;1.90;0.50;;;13.40;99.90;;;;;;4956503;29;20186;-79
2022/07/10 01:56:13;;;;;;;4.73;0.30;;;13.40;99.90;;;;;;4955190;29;20701;-79
2022/07/10 01:58:39;;;;;;;2.97;0.57;;;13.40;99.90;;;;;;4956070;29;20211;-79
2022/07/10 02:01:05;;;;;;;3.57;0.50;;;13.50;99.90;;;;;;4956358;29;20930;-79
2022/07/10 02:06:15;;;;;;;3.80;0.40;;;13.40;99.90;;;;;;4955426;28;20794;-83
2022/07/10 02:08:40;;;;;;;4.50;0.60;;;13.40;99.90;;;;;;4955004;29;20522;-83
2022/07/10 02:11:06;;;;;;;3.33;0.30;;;13.30;99.90;;;;;;4956016;29;20230;-80
2022/07/10 02:13:31;;;;;;;3.60;0.47;;;13.30;99.90;;;;;;4955828;29;20252;-83
2022/07/10 02:15:58;;;;;;;5.87;0.73;;;13.20;99.90;;;;;;4956026;29;20177;-84
2022/07/10 02:18:23;;;;;;;4.53;0.63;;;13.30;99.90;;;;;;4954833;29;20644;-80
2022/07/10 02:20:50;;;;;;;4.90;0.40;;;13.30;99.90;;;;;;4955985;29;20423;-83
2022/07/10 02:23:15;;;;;;;4.47;0.63;;;13.30;99.90;;;;;;4955880;29;20228;-83
2022/07/10 02:25:41;;;;;;;2.63;0.40;;;13.30;99.90;;;;;;4955869;29;20463;-80
2022/07/10 02:28:08;;;;;;;3.10;0.33;;;13.30;99.90;;;;;;4954240;29;20176;-82
2022/07/10 02:30:34;;;;;;;1.70;0.20;;;13.30;99.90;;;;;;4955778;29;20177;-82
2022/07/10 02:33:00;;;;;;;2.43;0.43;;;13.30;99.90;;;;;;4955757;29;20412;-83
2022/07/10 02:35:25;;;;;;;4.07;0.57;;;13.30;99.90;;;;;;4955702;29;20519;-83
2022/07/10 02:37:51;;;;;;;2.43;0.97;;;13.40;99.90;;;;;;4955702;29;20178;-83
2022/07/10 02:40:16;;;;;;;6.53;1.10;;;13.40;99.90;;;;;;4955717;29;20582;-81
2022/07/10 02:42:42;;;;;;;5.90;0.57;;;13.50;99.90;;;;;;4955245;29;20208;-81
2022/07/10 02:45:08;;;;;;;2.63;0.20;;;13.50;99.90;;;;;;4955443;29;20215;-80
2022/07/10 02:47:33;;;;;;;7.80;1.40;;;13.60;99.90;;;;;;4955660;29;20262;-81
2022/07/10 02:49:59;;;;;;;5.20;1.07;;;13.60;99.90;;;;;;4955463;29;20945;-83
2022/07/10 02:52:25;;;;;;;4.63;0.40;;;13.60;99.90;;;;;;4955612;29;20184;-83
2022/07/10 02:54:50;;;;;;;3.03;0.40;;;13.60;99.90;;;;;;4955444;29;20177;-83
2022/07/10 02:57:16;;;;;;;3.33;0.30;;;13.60;99.90;;;;;;4954962;29;20183;-84
2022/07/10 02:59:42;;;;;;;4.13;0.73;;;13.70;99.90;;;;;;4954154;29;20229;-82
2022/07/10 03:02:07;;;;;;;3.50;0.40;;;13.60;99.90;;;;;;4955279;29;20263;-81
2022/07/10 03:04:33;;;;;;;5.20;0.33;;;13.60;99.90;;;;;;4953955;29;20242;-81
2022/07/10 03:06:58;;;;;;;4.60;0.50;;;13.50;99.90;;;;;;4955314;29;20181;-82
2022/07/10 03:09:25;;;;;;;5.93;0.40;;;13.50;99.90;;;;;;4955062;29;20180;-83
2022/07/10 03:11:51;;;;;;;5.77;0.57;;;13.50;99.90;;;;;;4954889;29;20203;-81
2022/07/10 03:14:17;;;;;;;7.27;0.90;;;13.60;99.90;;;;;;4955177;29;20428;-81
2022/07/10 03:16:42;;;;;;;7.30;1.27;;;13.60;99.90;;;;;;4954938;28;20413;-84
2022/07/10 03:19:08;;;;;;;4.43;0.50;;;13.60;99.90;;;;;;4955173;29;20439;-82
2022/07/10 03:21:33;;;;;;;5.53;0.40;;;13.60;99.90;;;;;;4955000;29;20525;-81
2022/07/10 03:23:59;;;;;;;7.83;1.00;;;13.60;99.90;;;;;;4954947;29;20211;-82
2022/07/10 03:26:24;;;;;;;3.83;0.40;;;13.60;99.90;;;;;;4955045;29;20176;-83
2022/07/10 03:28:50;;;;;;;2.60;0.60;;;13.60;99.90;;;;;;4954535;29;20173;-83
2022/07/10 03:31:15;;;;;;;5.47;1.13;;;13.60;99.90;;;;;;4954873;29;20176;-83
2022/07/10 03:33:41;;;;;;;9.50;1.20;;;13.50;99.90;;;;;;4954968;29;20175;-80
2022/07/10 03:36:06;;;;;;;5.13;0.70;;;13.60;99.90;;;;;;4954974;29;20201;-79
2022/07/10 03:38:32;;;;;;;7.33;0.60;;;13.50;99.90;;;;;;4954969;29;20180;-85
2022/07/10 03:40:58;;;;;;;4.03;1.47;;;13.60;99.90;;;;;;4954893;29;20460;-79
2022/07/10 03:43:24;;;;;;;6.20;0.70;;;13.50;99.90;;;;;;4954450;29;20201;-82
2022/07/10 03:45:50;;;;;;;6.23;0.90;;;13.60;99.90;;;;;;4954862;29;20180;-82
2022/07/10 03:48:16;;;;;;;5.97;1.00;;;13.60;99.90;;;;;;4954838;29;20825;-81
2022/07/10 03:50:41;;;;;;;4.73;1.63;;;13.60;99.90;;;;;;4954790;29;20433;-82
2022/07/10 03:53:07;;;;;;;9.53;0.90;;;13.60;99.90;;;;;;4954790;29;20243;-81
2022/07/10 03:55:33;;;;;;;4.83;0.53;;;13.60;99.90;;;;;;4954777;29;20176;-83
2022/07/10 03:58:02;;;;;;;9.40;1.40;;;13.70;99.90;;;;;;4954381;29;20177;-81
2022/07/10 04:00:28;;;;;;;7.93;1.10;;;13.80;99.90;;;;;;4954674;29;20427;-83
2022/07/10 04:03:01;;;;;;;5.20;1.67;;;13.80;99.90;;;;;;4954624;29;20423;-82
2022/07/10 04:05:27;;;;;;;7.10;1.07;;;13.80;99.90;;;;;;4953363;29;20432;-80
2022/07/10 04:07:53;;;;;;;5.33;1.00;;;13.80;99.90;;;;;;4954666;29;20415;-83
2022/07/10 04:10:20;;;;;;;12.20;1.63;;;13.80;99.90;;;;;;4954370;29;20452;-83
2022/07/10 04:12:46;;;;;;;19.20;3.73;;;13.80;99.90;;;;;;4954149;29;20979;-82
2022/07/10 04:15:12;;;;;;;15.40;1.70;;;13.80;99.90;;;;;;4953304;29;20528;-80
2022/07/10 04:17:37;;;;;;;10.37;1.93;;;13.80;99.90;;;;;;4954532;29;20181;-83
2022/07/10 04:20:03;;;;;;;10.30;1.40;;;13.80;99.90;;;;;;4954607;29;20430;-80
2022/07/10 04:22:29;;;;;;;7.87;1.40;;;14.00;99.90;;;;;;4954482;29;20178;-83
2022/07/10 04:24:55;;;;;;;10.63;1.90;;;14.00;99.90;;;;;;4954383;29;20583;-81
2022/07/10 04:27:20;;;;;;;7.50;1.03;;;14.10;99.90;;;;;;4954107;29;20532;-83
2022/07/10 04:29:46;;;;;;;4.93;0.70;;;14.00;99.90;;;;;;4954518;28;20721;-83
2022/07/10 04:32:12;;;;;;;8.97;1.60;;;14.00;99.90;;;;;;4956814;29;20189;-84
2022/07/10 04:34:38;;;;;;;12.03;1.17;;;14.00;99.90;;;;;;4957996;29;20215;-83
2022/07/10 04:37:04;;;;;;;10.20;1.23;;;14.00;99.90;;;;;;4957924;29;20221;-81
2022/07/10 04:39:30;;;;;;;9.50;0.70;;;14.10;99.90;;;;;;4957840;29;20988;-81
2022/07/10 04:41:55;;;;;;;7.50;1.83;;;14.10;99.90;;;;;;4957442;29;20500;-81
2022/07/10 04:44:21;;;;;;;7.33;2.00;;;14.10;99.90;;;;;;4957679;29;20215;-80
2022/07/10 04:46:46;;;;;;;5.20;1.07;;;14.20;99.90;;;;;;4957725;29;20697;-80
2022/07/10 04:49:12;;;;;;;8.00;1.33;;;14.30;99.90;;;;;;4956483;29;20181;-83
2022/07/10 04:51:38;;;;;;;7.40;1.03;;;14.30;99.60;;;;;;4957711;29;20643;-81
2022/07/10 04:54:03;;;;;;;5.20;0.93;;;14.40;99.90;;;;;;4957647;29;20423;-83
2022/07/10 04:56:29;;;;;;;15.63;2.20;;;14.40;99.90;;;;;;4957552;29;20174;-82
2022/07/10 04:58:54;;;;;;;4.57;0.77;;;14.30;99.90;;;;;;4957165;29;20184;-81
2022/07/10 05:01:20;;;;;;;11.50;2.73;;;14.30;99.90;;;;;;4957437;29;20173;-84
2022/07/10 05:03:46;;;;;;;8.80;1.03;;;14.50;83.30;;;;;;4957354;29;20289;-80
2022/07/10 05:06:11;;;;;;;8.63;1.60;;;14.60;72.30;;;;;;4957391;29;20432;-81
2022/07/10 05:08:37;;;;;;;5.80;1.73;;;14.60;1.00;;;;;;4957397;29;20177;-81
2022/07/10 05:11:02;;;;;;;6.43;1.50;;;14.80;1.00;;;;;;4957086;29;20232;-82
2022/07/10 05:13:28;;;;;;;10.27;2.13;;;14.90;1.00;;;;;;4956836;29;20220;-82
2022/07/10 05:15:53;;;;;;;10.37;3.13;;;14.90;1.00;;;;;;4957225;29;20627;-80
2022/07/10 05:18:19;;;;;;;9.43;1.20;;;14.90;1.00;;;;;;4957176;29;20635;-82
2022/07/10 05:20:47;;;;;;;11.53;2.10;;;14.80;1.00;;;;;;4955927;29;20242;-83
2022/07/10 05:23:13;;;;;;;5.87;1.17;;;14.90;1.00;;;;;;4955736;29;20189;-80
2022/07/10 05:25:38;;;;;;;2.40;0.40;;;14.90;1.00;;;;;;4957014;29;20428;-83
2022/07/10 05:28:05;;;;;;;1.50;0.20;;;15.00;1.00;;;;;;4956638;29;20274;-80
2022/07/10 05:30:31;;;;;;;7.70;1.07;;;15.00;1.00;;;;;;4956962;29;20590;-81
2022/07/10 05:32:56;;;;;;;8.30;0.47;;;15.00;1.00;;;;;;4956968;29;20476;-83
2022/07/10 05:35:22;;;;;;;1.87;0.23;;;15.00;1.00;;;;;;4956856;29;20430;-79
2022/07/10 05:37:47;;;;;;;1.63;0.47;;;15.10;1.00;;;;;;4955542;29;20190;-80
2022/07/10 05:40:13;;;;;;;4.20;0.63;;;15.10;1.00;;;;;;4956628;28;20174;-83
2022/07/10 05:42:39;;;;;;;3.80;0.33;;;15.10;1.00;;;;;;4956402;29;20230;-82
2022/07/10 05:45:05;;;;;;;2.17;0.50;;;15.30;99.90;;;;;;4956617;29;20225;-82
2022/07/10 05:47:31;;;;;;;3.27;0.40;;;15.40;1.00;;;;;;4956661;29;20190;-81
2022/07/10 05:49:56;;;;;;;3.27;0.60;;;15.50;99.90;;;;;;4956619;29;20433;-83
2022/07/10 05:52:22;;;;;;;4.80;0.50;;;15.60;1.00;;;;;;4956571;29;20190;-84
2022/07/10 05:54:47;;;;;;;2.30;0.50;;;15.60;28.10;;;;;;4956525;29;20192;-80
2022/07/10 05:57:13;;;;;;;6.93;1.57;;;15.70;99.90;;;;;;4956055;29;20187;-83
2022/07/10 05:59:38;;;;;;;2.43;0.63;;;15.50;99.90;;;;;;4956526;29;20178;-80
2022/07/10 06:02:04;;;;;;;41.53;6.03;;;15.60;42.10;;;;;;4956346;29;20179;-80
2022/07/10 06:04:30;;;;;;;9.10;1.10;;;15.80;1.00;;;;;;4956225;29;20622;-82
2022/07/10 06:06:55;;;;;;;7.63;1.10;;;16.10;1.00;;;;;;4956245;29;20527;-77
2022/07/10 06:09:21;;;;;;;9.90;1.23;;;16.40;1.00;;;;;;4956109;29;20439;-79
2022/07/10 06:11:48;;;;;;;4.90;0.60;;;16.50;1.00;;;;;;4955831;29;20260;-80
2022/07/10 06:14:13;;;;;;;5.03;1.07;;;16.70;1.00;;;;;;4956138;29;20263;-78
2022/07/10 06:16:39;;;;;;;8.80;1.13;;;17.00;91.90;;;;;;4956017;29;20860;-79
2022/07/10 06:19:04;;;;;;;5.53;0.70;;;16.80;99.90;;;;;;4956039;29;20640;-80
2022/07/10 06:21:30;;;;;;;4.93;0.93;;;17.50;1.00;;;;;;4955988;29;20655;-79
2022/07/10 06:23:55;;;;;;;4.80;0.57;;;17.20;1.00;;;;;;4955842;29;20214;-82
2022/07/10 06:26:21;;;;;;;10.23;0.80;;;16.80;32.60;;;;;;4955619;29;20170;-79
2022/07/10 06:28:46;;;;;;;3.30;0.80;;;16.70;99.90;;;;;;4955903;29;20259;-78
2022/07/10 06:31:12;;;;;;;10.17;0.90;;;16.60;99.90;;;;;;4954584;29;20178;-79
2022/07/10 06:33:38;;;;;;;9.10;1.97;;;16.80;54.70;;;;;;4955732;29;20187;-80
2022/07/10 06:36:03;;;;;;;4.63;0.80;;;16.60;1.00;;;;;;4955819;29;20182;-80
2022/07/10 06:38:35;;;;;;;3.77;0.67;;;16.70;1.00;;;;;;4954477;29;20212;-79
2022/07/10 06:41:01;;;;;;;10.30;2.23;;;16.40;99.90;;;;;;4955751;29;20182;-79
2022/07/10 06:43:26;;;;;;;1.90;0.20;;;16.20;1.00;;;;;;4955217;29;20817;-78
2022/07/10 06:45:52;;;;;;;13.27;1.53;;;16.20;99.90;;;;;;4955508;29;20656;-77
2022/07/10 06:48:18;;;;;;;8.97;1.37;;;17.10;99.90;;;;;;4955548;29;20188;-79
2022/07/10 06:50:44;;;;;;;4.73;0.20;;;16.90;16.50;;;;;;4955540;29;20187;-78
2022/07/10 06:53:09;;;;;;;4.30;0.30;;;17.00;99.90;;;;;;4954998;28;20430;-79
2022/07/10 06:55:35;;;;;;;2.67;0.77;;;18.00;1.00;;;;;;4955500;29;20175;-78
2022/07/10 06:58:01;;;;;;;4.63;0.30;;;18.50;99.90;;;;;;4955053;29;20213;-79
2022/07/10 07:00:27;;;;;;;2.70;0.77;;;19.40;99.90;;;;;;4955302;29;20460;-79
2022/07/10 07:02:53;;;;;;;2.60;0.43;;;18.40;99.90;;;;;;4955368;29;20406;-78
2022/07/10 07:05:19;;;;;;;3.00;0.40;;;18.00;99.90;;;;;;4955233;29;20475;-78
2022/07/10 07:07:45;;;;;;;1.87;0.80;;;18.40;99.90;;;;;;4955242;29;20763;-78
2022/07/10 07:10:11;;;;;;;3.87;0.30;;;18.60;99.90;;;;;;4955085;29;20239;-78
2022/07/10 07:12:36;;;;;;;1.57;0.30;;;19.40;99.90;;;;;;4954782;29;20180;-78
2022/07/10 07:15:02;;;;;;;5.33;0.50;;;21.40;99.90;;;;;;4955184;29;20456;-78
2022/07/10 07:17:34;;;;;;;4.20;0.27;;;22.00;97.80;;;;;;4955061;29;20664;-78
2022/07/10 07:25:31;;;;;;;12.73;1.70;;;21.50;2.80;;;;;;4955308;29;20426;-78
2022/07/10 07:27:57;;;;;;;9.30;1.63;;;20.70;35.20;;;;;;4954634;29;20424;-79
2022/07/10 07:30:22;;;;;;;2.33;0.70;;;21.70;20.30;;;;;;4955026;29;20214;-78
2022/07/10 07:33:08;;;;;;;4.40;0.30;;;22.00;4.50;;;;;;4954943;29;20187;-78
2022/07/10 07:35:34;;;;;;;1.43;0.27;;;22.90;1.00;;;;;;4954643;29;20199;-78
2022/07/10 07:38:02;;;;;;;3.77;0.30;;;23.30;1.00;;;;;;4954831;29;20429;-79
2022/07/10 07:40:28;;;;;;;3.77;0.53;;;22.90;1.00;;;;;;4953679;29;20192;-78
2022/07/10 07:42:54;;;;;;;4.53;0.30;;;22.70;1.00;;;;;;4954492;29;20418;-79
2022/07/10 07:45:21;;;;;;;3.70;0.33;;;22.00;1.00;;;;;;4954760;29;20874;-79
2022/07/10 07:47:52;;;;;;;3.60;0.40;;;21.30;1.00;;;;;;4954867;29;20779;-78
2022/07/10 07:50:34;;;;;;;5.70;1.20;;;19.00;1.00;;;;;;4954869;29;20827;-78
2022/07/10 07:53:02;;;;;;;6.70;1.40;;;19.80;28.70;;;;;;4954926;29;20792;-78
2022/07/10 07:55:28;;;;;;;1.40;0.40;;;20.80;35.10;;;;;;4955727;29;20484;-78
2022/07/10 07:57:55;;;;;;;4.23;0.97;;;22.60;8.70;;;;;;4956486;29;20434;-79
2022/07/10 08:00:23;;;;;;;5.00;0.77;;;21.50;1.60;;;;;;4957708;29;20491;-78
2022/07/10 08:02:50;;;;;;;3.70;1.07;;;22.40;5.80;;;;;;4954602;29;20454;-83
2022/07/10 08:05:16;;;;;;;7.00;1.00;;;21.70;1.00;;;;;;4956769;28;20475;-80
2022/07/10 08:07:44;;;;;;;5.87;0.77;;;24.20;1.00;;;;;;4958489;29;20948;-82
2022/07/10 08:10:14;;;;;;;5.53;1.03;;;23.00;1.00;;;;;;4958232;29;20232;-83
2022/07/10 08:12:41;;;;;;;4.93;0.83;;;20.40;1.00;;;;;;4957916;29;20420;-79
2022/07/10 08:15:11;;;;;;;4.57;0.77;;;19.20;1.00;;;;;;4958245;29;20787;-83
2022/07/10 08:17:37;;;;;;;4.80;0.80;;;18.80;6.30;;;;;;4956955;29;20435;-81
2022/07/10 08:20:05;;;;;;;5.00;1.07;;;21.40;1.00;;;;;;4958244;29;20794;-81
2022/07/10 08:22:31;;;;;;;3.20;0.97;;;22.30;1.00;;;;;;4958218;29;20432;-84
2022/07/10 08:24:56;;;;;;;10.43;1.43;;;23.80;1.00;;;;;;4958022;29;20468;-78
2022/07/10 08:27:22;;;;;;;8.47;1.50;;;24.20;1.00;;;;;;4957739;29;20197;-79
2022/07/10 08:29:48;;;;;;;5.40;0.90;;;24.80;1.00;;;;;;4957956;29;20212;-84
2022/07/10 08:32:13;;;;;;;6.77;0.73;;;25.60;1.00;;;;;;4957991;29;20408;-80
2022/07/10 08:34:39;;;;;;;5.00;0.70;;;26.20;1.00;;;;;;4958039;29;20181;-80
2022/07/10 08:37:04;;;;;;;6.83;1.27;;;26.50;1.00;;;;;;4956668;29;20261;-79
2022/07/10 08:39:31;;;;;;;7.40;1.53;;;26.00;1.00;;;;;;4957959;29;20189;-81
2022/07/10 08:41:57;;;;;;;6.53;1.20;;;26.20;1.00;;;;;;4957370;29;20181;-80
2022/07/10 08:44:22;;;;;;;7.37;0.97;;;23.50;1.00;;;;;;4957638;29;20976;-84
2022/07/10 08:46:48;;;;;;;4.33;0.97;;;22.00;1.00;;;;;;4957679;29;20638;-81
2022/07/10 08:49:16;;;;;;;7.20;1.00;;;20.90;1.00;;;;;;4956458;29;20531;-80
2022/07/10 08:51:54;;;;;;;5.13;0.70;;;21.10;1.00;;;;;;4956396;29;20510;-80
2022/07/10 08:54:20;;;;;;;4.80;1.00;;;21.90;1.00;;;;;;4957752;29;20777;-79
2022/07/10 08:56:47;;;;;;;7.30;1.17;;;21.90;1.00;;;;;;4957280;29;20467;-79
2022/07/10 08:59:14;;;;;;;5.53;1.00;;;21.20;1.00;;;;;;4957522;29;20424;-79
2022/07/10 09:01:40;;;;;;;4.17;1.10;;;21.50;1.00;;;;;;4957445;29;20397;-79
2022/07/10 09:04:05;;;;;;;7.13;1.57;;;22.20;1.00;;;;;;4957397;29;20476;-79
2022/07/10 09:06:31;;;;;;;4.60;1.20;;;23.90;1.00;;;;;;4956177;29;20177;-82
2022/07/10 09:09:04;;;;;;;2.90;0.70;;;25.00;1.00;;;;;;4957404;29;20658;-81
2022/07/10 09:11:30;;;;;;;5.00;1.03;;;24.00;1.00;;;;;;4956829;29;20307;-79
2022/07/10 09:14:07;;;;;;;5.93;0.63;;;23.00;1.00;;;;;;4957214;29;20412;-80
2022/07/10 09:16:38;;;;;;;4.27;0.70;;;24.30;1.00;;;;;;4956920;28;20768;-79
2022/07/10 09:19:17;;;;;;;6.20;0.80;;;25.10;1.00;;;;;;4957124;29;20424;-80
2022/07/10 09:21:43;;;;;;;8.90;1.37;;;24.60;1.00;;;;;;4956985;29;20416;-84
2022/07/10 09:24:08;;;;;;;4.70;0.80;;;26.00;1.00;;;;;;4956894;29;20973;-80
2022/07/10 09:26:38;;;;;;;5.67;1.27;;;25.10;1.00;;;;;;4956736;29;20489;-81
2022/07/10 09:29:10;;;;;;;4.20;0.63;;;23.70;1.00;;;;;;4957035;29;20329;-81
2022/07/10 09:31:56;;;;;;;6.87;0.87;;;24.80;1.00;;;;;;4956897;29;20420;-80
2022/07/10 09:34:44;;;;;;;5.83;0.73;;;24.00;1.00;;;;;;4956880;29;20463;-79
2022/07/10 09:37:27;;;;;;;4.20;0.70;;;23.30;1.00;;;;;;4956834;29;20964;-81
2022/07/10 09:40:04;;;;;;;8.00;2.30;;;22.20;1.00;;;;;;4955465;29;20432;-79
2022/07/10 09:42:36;;;;;;;6.53;0.73;;;22.60;1.00;;;;;;4955159;29;20448;-79
2022/07/10 09:45:13;;;;;;;5.23;1.07;;;24.20;1.00;;;;;;4956664;29;20476;-80
2022/07/10 09:47:39;;;;;;;11.53;1.00;;;23.40;1.00;;;;;;4956631;29;20416;-80
2022/07/10 09:50:29;;;;;;;5.80;1.20;;;23.30;1.00;;;;;;4955380;29;20429;-80
2022/07/10 09:53:01;;;;;;;6.00;0.73;;;24.70;1.00;;;;;;4956627;29;20835;-81
2022/07/10 09:55:32;;;;;;;6.97;0.57;;;25.50;1.00;;;;;;4956663;29;20421;-80
2022/07/10 09:57:59;;;;;;;6.87;0.93;;;24.00;1.00;;;;;;4956186;29;20791;-80
2022/07/10 10:00:35;;;;;;;7.77;1.20;;;23.00;1.00;;;;;;4956402;29;20433;-80
2022/07/10 10:03:03;;;;;;;5.40;1.03;;;24.60;1.00;;;;;;4956351;29;20424;-79
2022/07/10 10:05:54;;;;;;;4.40;0.60;;;24.30;1.00;;;;;;4956256;29;20555;-81
2022/07/10 10:08:24;;;;;;;7.37;0.70;;;23.70;1.00;;;;;;4956340;29;20556;-81
2022/07/10 10:10:51;;;;;;;5.33;0.80;;;25.10;1.00;;;;;;4955608;29;20475;-82
2022/07/10 10:13:22;;;;;;;5.50;0.73;;;26.30;1.00;;;;;;4956289;29;20424;-80
2022/07/10 10:15:50;;;;;;;5.33;0.80;;;26.80;1.00;;;;;;4956243;29;20491;-81
2022/07/10 10:18:21;;;;;;;5.23;0.80;;;25.70;1.00;;;;;;4956050;29;20944;-81
2022/07/10 10:20:48;;;;;;;3.33;0.57;;;24.60;1.00;;;;;;4956094;29;20419;-80
2022/07/10 10:23:20;;;;;;;4.73;0.70;;;24.40;1.00;;;;;;4955922;29;20400;-81
2022/07/10 10:25:46;;;;;;;4.87;1.67;;;24.80;1.00;;;;;;4955690;29;20440;-81
2022/07/10 10:28:14;;;;;;;4.00;0.57;;;23.50;1.00;;;;;;4955111;28;20413;-80
2022/07/10 10:30:42;;;;;;;3.50;0.63;;;23.30;1.00;;;;;;4955870;29;20445;-80
2022/07/10 10:33:34;;;;;;;5.73;0.70;;;25.20;1.00;;;;;;4954575;29;20762;-80
2022/07/10 10:36:00;;;;;;;7.10;1.37;;;23.80;1.00;;;;;;4955797;29;20933;-81
2022/07/10 10:38:49;;;;;;;4.40;1.20;;;24.00;1.00;;;;;;4954498;29;20424;-81
2022/07/10 10:41:28;;;;;;;3.23;0.53;;;23.50;1.00;;;;;;4955434;28;20444;-81
2022/07/10 10:44:24;;;;;;;2.93;0.63;;;23.50;1.00;;;;;;4955650;29;20467;-80
2022/07/10 10:47:05;;;;;;;3.60;0.50;;;21.90;1.00;;;;;;4954567;28;20431;-79
2022/07/10 10:49:58;;;;;;;5.20;0.67;;;22.10;1.00;;;;;;4955564;29;20419;-79
2022/07/10 10:52:24;;;;;;;3.03;0.50;;;23.50;1.00;;;;;;4955448;29;20412;-80
2022/07/10 10:55:03;;;;;;;3.07;0.30;;;24.10;1.00;;;;;;4955449;29;20936;-80
2022/07/10 10:57:32;;;;;;;2.77;0.63;;;24.70;1.00;;;;;;4955113;29;20167;-81
2022/07/10 10:59:59;;;;;;;5.90;0.60;;;24.80;1.00;;;;;;4954160;29;20425;-80
2022/07/10 11:02:25;;;;;;;7.03;0.80;;;25.10;1.00;;;;;;4955393;29;20775;-81
2022/07/10 11:04:52;;;;;;;7.20;1.77;;;25.00;1.00;;;;;;4955287;29;20547;-79
2022/07/10 11:07:52;;;;;;;6.60;0.70;;;24.80;1.00;;;;;;4955353;29;20499;-80
2022/07/10 11:10:59;;;;;;;4.03;0.70;;;23.20;1.00;;;;;;4953837;29;20480;-79
2022/07/10 11:13:29;;;;;;;3.00;0.40;;;24.50;1.00;;;;;;4953763;28;20420;-81
2022/07/10 11:15:57;;;;;;;3.93;0.40;;;23.10;1.00;;;;;;4955301;29;20428;-80
2022/07/10 11:18:24;;;;;;;2.63;1.20;;;24.20;1.00;;;;;;4955230;29;20449;-80
2022/07/10 11:20:50;;;;;;;4.80;0.80;;;25.10;1.00;;;;;;4955108;29;20432;-80
2022/07/10 11:23:43;;;;;;;3.80;0.57;;;25.60;1.00;;;;;;4954958;29;20493;-79
2022/07/10 11:26:23;;;;;;;4.60;0.73;;;24.60;1.00;;;;;;4954788;28;20508;-79
2022/07/10 11:28:57;;;;;;;5.10;1.73;;;24.50;1.00;;;;;;4955029;29;20420;-79
2022/07/10 11:31:25;;;;;;;2.10;0.30;;;25.50;1.00;;;;;;4954855;29;20424;-79
2022/07/10 11:33:53;;;;;;;6.13;0.87;;;25.30;1.00;;;;;;4954981;29;20817;-79
2022/07/10 11:36:25;;;;;;;2.93;0.43;;;24.10;1.00;;;;;;4954894;28;20953;-80
2022/07/10 11:38:58;;;;;;;3.97;0.37;;;24.00;1.00;;;;;;4956690;28;20424;-80
2022/07/10 11:41:24;;;;;;;2.37;0.80;;;23.20;1.00;;;;;;4958544;29;20443;-80
2022/07/10 11:43:57;;;;;;;3.23;0.53;;;22.70;1.00;;;;;;4958877;29;20479;-79
2022/07/10 11:46:30;;;;;;;2.50;0.57;;;24.10;1.00;;;;;;4958904;29;20184;-80
2022/07/10 11:48:56;;;;;;;5.43;0.80;;;25.10;1.00;;;;;;4958748;29;20501;-81
2022/07/10 11:51:33;;;;;;;4.43;0.40;;;24.80;1.00;;;;;;4958793;29;20895;-80
2022/07/10 11:54:05;;;;;;;5.47;1.20;;;25.00;1.00;;;;;;4958814;29;20412;-79
2022/07/10 11:56:33;;;;;;;5.77;1.20;;;23.70;1.00;;;;;;4958295;29;20474;-80
2022/07/10 11:59:07;;;;;;;4.23;0.67;;;24.30;1.00;;;;;;4958753;29;20511;-80
2022/07/10 12:01:34;;;;;;;5.23;1.40;;;25.50;1.00;;;;;;4958656;29;20459;-79
2022/07/10 12:04:08;;;;;;;6.63;1.20;;;25.60;1.00;;;;;;4958431;29;20495;-80
2022/07/10 12:06:35;;;;;;;3.30;0.73;;;24.70;1.00;;;;;;4958546;29;20475;-83
2022/07/10 12:09:08;;;;;;;4.53;1.00;;;23.70;1.00;;;;;;4958390;29;20416;-82
2022/07/10 12:11:34;;;;;;;5.33;0.70;;;23.60;1.00;;;;;;4957980;29;20470;-80
2022/07/10 12:14:19;;;;;;;4.37;0.63;;;23.40;1.00;;;;;;4958366;29;20428;-80
2022/07/10 12:16:51;;;;;;;3.80;0.87;;;23.30;1.00;;;;;;4958434;29;20425;-80
2022/07/10 12:19:24;;;;;;;4.03;0.50;;;23.10;1.00;;;;;;4958233;29;20448;-81
2022/07/10 12:21:51;;;;;;;6.57;0.70;;;22.20;1.00;;;;;;4958372;29;20480;-80
2022/07/10 12:24:19;;;;;;;4.40;0.50;;;22.10;1.00;;;;;;4958154;29;20486;-80
2022/07/10 12:26:45;;;;;;;4.87;0.90;;;22.00;1.00;;;;;;4957821;29;20424;-79
2022/07/10 12:29:28;;;;;;;4.17;0.63;;;22.30;1.00;;;;;;4958080;29;20409;-79
2022/07/10 12:32:01;;;;;;;7.27;1.53;;;22.00;1.00;;;;;;4958060;29;20408;-80
2022/07/10 12:34:34;;;;;;;6.43;0.50;;;22.00;1.00;;;;;;4956741;29;20421;-79
2022/07/10 12:37:07;;;;;;;5.87;1.30;;;22.20;1.00;;;;;;4956758;29;20515;-79
2022/07/10 12:39:36;;;;;;;3.83;0.50;;;22.20;1.00;;;;;;4957929;29;20404;-79
2022/07/10 12:42:04;;;;;;;4.13;0.80;;;22.00;1.00;;;;;;4957601;29;20416;-80
2022/07/10 12:44:46;;;;;;;5.00;0.50;;;22.70;1.00;;;;;;4956417;29;20483;-79
2022/07/10 12:47:13;;;;;;;3.53;0.50;;;22.70;1.00;;;;;;4957820;29;20408;-80
2022/07/10 12:50:05;;;;;;;5.17;0.70;;;22.30;1.00;;;;;;4957062;28;20496;-80
2022/07/10 12:52:35;;;;;;;4.53;0.93;;;22.20;1.00;;;;;;4957565;29;20468;-81
2022/07/10 12:55:25;;;;;;;2.00;0.60;;;21.80;1.00;;;;;;4957643;29;20937;-80
2022/07/10 12:57:54;;;;;;;3.73;0.60;;;22.20;1.00;;;;;;4957612;29;20417;-81
2022/07/10 13:00:24;;;;;;;3.17;0.73;;;22.60;1.00;;;;;;4957576;29;20773;-84
2022/07/10 13:03:04;;;;;;;4.67;0.87;;;22.20;1.00;;;;;;4957512;29;20415;-81
2022/07/10 13:05:33;;;;;;;5.10;2.27;;;21.80;1.00;;;;;;4957334;29;20995;-86